Friday, October 19, 2018, 7:56 AM EDT
Back to Local

KMSS, Massena International -richards Fld

Location: Massena, NY, United States Lat: 44.933
Local Time: 7:56 AM EDT (11:56 GMT) Lon: -74.85
Time Zone: US/Eastern Elev: 213 ft

Show me the last for .
Show Coded

Time T Td Feel RH Dir Speed Gust Alt SLP Vis Weather Sky Remarks
2018-10-19 06:53 41 37 33 85 210° 14 - 30.06 30.07 10 CLR None
2018-10-19 05:53 40 36 33 85 220° 12 - 30.08 30.09 10 CLR None
2018-10-19 04:53 40 34 33 79 220° 10 - 30.10 30.11 10 CLR None
2018-10-19 03:53 39 34 33 81 220° 8 - 30.11 30.12 10 CLR None
2018-10-19 02:53 40 33 34 76 220° 9 - 30.13 30.14 10 SCT070 None
2018-10-19 01:53 41 32 34 70 220° 12 - 30.15 30.16 10 OVC070 6-hr Min Temp (2am): 37.0°F
6-hr Max Temp (2am): 41.0°F
2018-10-19 00:53 40 31 34 69 210° 9 - 30.17 30.18 10 OVC070 24-hr Min Temp (1am): 28.9°F
24-hr Max Temp (1am): 43.0°F
2018-10-18 23:53 39 30 34 69 210° 7 - 30.20 30.21 10 OVC080 None
2018-10-18 22:53 38 28 34 67 210° 5 - 30.21 30.23 10 BKN080 OVC100 None
2018-10-18 21:53 39 26 32 59 220° 10 - 30.22 30.23 10 OVC100 None
2018-10-18 20:53 39 24 32 54 230° 10 - 30.23 30.25 10 OVC070 None
2018-10-18 19:53 38 21 32 50 220° 8 - 30.25 30.26 10 OVC070 6-hr Min Temp (8pm): 37.0°F
6-hr Max Temp (8pm): 43.0°F
2018-10-18 18:53 39 19 33 44 220° 9 - 30.26 30.27 10 OVC090 None
2018-10-18 17:53 40 17 30 39 250° 14 20 30.26 30.28 10 CLR None
2018-10-18 16:53 42 17 33 35 240° 14 21 30.26 30.28 10 CLR None
2018-10-18 15:53 43 17 33 34 270° 15 25 30.28 30.29 10 CLR None
2018-10-18 14:53 42 17 33 35 240° 16 22 30.29 30.30 10 CLR None
2018-10-18 13:53 40 18 29 40 270° 17 24 30.31 30.32 10 SCT055 6-hr Min Temp (2pm): 30.9°F
6-hr Max Temp (2pm): 42.1°F
2018-10-18 12:53 39 21 30 48 270° 13 18 30.33 30.34 10 SCT046 None
2018-10-18 11:53 37 22 27 53 270° 18 - 30.35 30.36 10 BKN038 None
2018-10-18 10:53 37 23 26 56 270° 15 22 30.35 30.36 10 SCT036 None
2018-10-18 09:53 33 21 21 60 290° 15 23 30.35 30.37 10 BKN034 None
2018-10-18 08:53 33 22 23 63 270° 15 - 30.34 30.35 10 FEW037 None

Support USWX by starting your Amazon purchase here.